Time;durP1;ratioP1;P1;durP2;ratioP2;P2;SDS_P1;SDS_P2;PMS_P1;PMS_P2;Temp;Humidity;BMP_temperature;BMP_pressure;BME280_temperature;BME280_humidity;BME280_pressure;Samples;Min_cycle;Max_cycle;Signal;HPM_P1;HPM_P2
2020/12/12 00:00:12;;;;;;;26.77;19.73;;;;;;;4.84;100.00;99078.34;4976702;28;20042;-83
2020/12/12 00:02:40;;;;;;;27.58;20.77;;;;;;;4.83;100.00;99076.66;4978293;28;20050;-83
2020/12/12 00:05:20;;;;;;;27.67;20.35;;;;;;;4.77;100.00;99073.47;4945013;28;20570;-82
2020/12/12 00:07:45;;;;;;;24.80;18.98;;;;;;;4.73;100.00;99067.56;4973391;28;20574;-82
2020/12/12 00:10:11;;;;;;;29.17;20.70;;;;;;;4.70;100.00;99064.22;4977676;28;21547;-83
2020/12/12 00:12:47;;;;;;;29.27;19.65;;;;;;;4.58;100.00;99049.97;4931160;28;20038;-83
2020/12/12 00:15:12;;;;;;;26.60;19.83;;;;;;;4.73;100.00;99070.16;4947118;28;20038;-82
2020/12/12 00:17:37;;;;;;;28.70;20.65;;;;;;;4.79;100.00;99084.72;4963558;28;20096;-82
2020/12/12 00:20:03;;;;;;;30.55;20.92;;;;;;;4.79;100.00;99085.56;4997922;28;20066;-82
2020/12/12 00:22:28;;;;;;;26.52;21.02;;;;;;;4.78;100.00;99088.28;5054197;28;20505;-82
2020/12/12 00:24:53;;;;;;;31.33;21.92;;;;;;;4.77;100.00;99084.81;5057244;28;20063;-83
2020/12/12 00:27:21;;;;;;;29.95;22.02;;;;;;;4.77;100.00;99089.16;5024951;28;20032;-78
2020/12/12 00:29:47;;;;;;;33.42;21.80;;;;;;;4.81;100.00;99077.63;5039827;28;20685;-78
2020/12/12 00:32:15;;;;;;;27.40;21.42;;;;;;;4.82;100.00;99085.44;5024695;28;20032;-79
2020/12/12 00:34:40;;;;;;;33.15;21.83;;;;;;;4.74;100.00;99087.56;5044485;28;20033;-79
2020/12/12 00:37:06;;;;;;;28.98;21.15;;;;;;;4.77;100.00;99090.03;5055005;28;20021;-79
2020/12/12 00:39:31;;;;;;;34.78;22.65;;;;;;;4.73;100.00;99085.88;5059161;28;20029;-78
2020/12/12 00:41:56;;;;;;;31.00;21.77;;;;;;;4.75;100.00;99084.00;5057050;28;20021;-78
2020/12/12 00:44:22;;;;;;;28.02;20.10;;;;;;;4.80;100.00;99086.41;5056284;28;20074;-79
2020/12/12 00:46:47;;;;;;;32.53;22.30;;;;;;;4.75;100.00;99078.78;5041901;28;20032;-79
2020/12/12 00:49:13;;;;;;;28.98;22.33;;;;;;;4.81;100.00;99088.94;5038295;28;20043;-78
2020/12/12 00:51:38;;;;;;;32.08;22.85;;;;;;;4.75;100.00;99086.63;5058337;28;20037;-79
2020/12/12 00:54:04;;;;;;;30.58;21.60;;;;;;;4.76;100.00;99090.09;5062312;28;20103;-79
2020/12/12 00:56:29;;;;;;;31.90;22.83;;;;;;;4.88;100.00;99090.34;5056378;28;20017;-78
2020/12/12 00:58:55;;;;;;;37.83;22.75;;;;;;;4.83;100.00;99096.75;5056093;28;20025;-78
2020/12/12 01:01:20;;;;;;;36.72;21.85;;;;;;;4.80;100.00;99092.50;5048744;28;20021;-78
2020/12/12 01:03:46;;;;;;;32.13;22.58;;;;;;;4.77;100.00;99100.50;5053659;28;20025;-79
2020/12/12 01:06:13;;;;;;;31.02;23.17;;;;;;;4.78;100.00;99096.97;5034486;28;20029;-79
2020/12/12 01:08:40;;;;;;;29.90;21.50;;;;;;;4.80;100.00;99094.25;5046193;28;20450;-79
2020/12/12 01:11:06;;;;;;;29.20;21.85;;;;;;;4.79;100.00;99100.44;5058932;28;20029;-78
2020/12/12 01:13:32;;;;;;;37.83;23.92;;;;;;;4.81;100.00;99101.19;5057404;28;20024;-79
2020/12/12 01:15:58;;;;;;;38.15;24.25;;;;;;;4.80;100.00;99102.13;5061907;28;20103;-78
2020/12/12 01:18:23;;;;;;;34.45;23.00;;;;;;;4.81;100.00;99096.78;5053408;28;20029;-78
2020/12/12 01:20:49;;;;;;;35.22;23.00;;;;;;;4.79;100.00;99096.03;5055402;28;20036;-79
2020/12/12 01:23:14;;;;;;;32.30;22.92;;;;;;;4.78;100.00;99101.34;5051910;28;20513;-78
2020/12/12 01:25:40;;;;;;;31.88;23.15;;;;;;;4.91;100.00;99112.91;5036130;28;20026;-78
2020/12/12 01:28:05;;;;;;;29.55;22.58;;;;;;;4.84;100.00;99108.91;5053825;28;20082;-79
2020/12/12 01:30:31;;;;;;;27.73;21.23;;;;;;;4.81;100.00;99111.66;5057492;28;20051;-78
2020/12/12 01:32:57;;;;;;;29.75;21.27;;;;;;;4.95;100.00;99117.06;5051697;28;20044;-78
2020/12/12 01:35:22;;;;;;;31.45;21.00;;;;;;;4.99;100.00;99107.31;5055896;28;20104;-79
2020/12/12 01:37:47;;;;;;;28.70;20.55;;;;;;;4.98;100.00;99110.84;5038338;28;20025;-78
2020/12/12 01:40:13;;;;;;;33.10;21.38;;;;;;;4.89;100.00;99107.75;5057602;28;20062;-79
2020/12/12 01:42:38;;;;;;;28.85;21.48;;;;;;;4.91;100.00;99124.22;5037798;28;20057;-79
2020/12/12 01:45:06;;;;;;;35.55;23.38;;;;;;;4.95;100.00;99117.06;5058021;28;20032;-79
2020/12/12 01:47:32;;;;;;;29.63;20.83;;;;;;;4.97;100.00;99122.22;5061623;28;20032;-79
2020/12/12 01:49:57;;;;;;;37.70;22.45;;;;;;;4.98;100.00;99126.56;5059766;28;20028;-79
2020/12/12 01:52:23;;;;;;;32.40;20.92;;;;;;;5.03;100.00;99127.19;5060617;28;20032;-79
2020/12/12 01:54:49;;;;;;;36.85;22.58;;;;;;;5.07;100.00;99126.97;5062565;28;20119;-79
2020/12/12 01:57:19;;;;;;;37.78;22.85;;;;;;;5.10;100.00;99136.44;5058080;28;20159;-79
2020/12/12 01:59:44;;;;;;;39.17;23.13;;;;;;;4.99;100.00;99141.34;5060881;28;20515;-79
2020/12/12 02:02:11;;;;;;;36.70;22.75;;;;;;;5.04;100.00;99141.97;5054072;28;20024;-79
2020/12/12 02:04:40;;;;;;;42.25;23.55;;;;;;;5.01;100.00;99142.94;5060887;28;20020;-79
2020/12/12 02:07:05;;;;;;;38.47;23.42;;;;;;;5.02;100.00;99139.44;5054626;28;20056;-78
2020/12/12 02:09:30;;;;;;;38.35;24.35;;;;;;;5.04;100.00;99147.22;5058534;28;20506;-78
2020/12/12 02:11:58;;;;;;;40.13;23.17;;;;;;;5.02;100.00;99142.06;5058022;28;20021;-79
2020/12/12 02:14:24;;;;;;;35.85;23.73;;;;;;;5.06;100.00;99143.56;5055589;28;20033;-79
2020/12/12 02:16:58;;;;;;;43.95;24.17;;;;;;;5.03;100.00;99150.75;5050707;28;20451;-79
2020/12/12 02:19:23;;;;;;;37.70;23.52;;;;;;;5.03;100.00;99142.91;5047099;28;20029;-79
2020/12/12 02:21:51;;;;;;;39.20;23.85;;;;;;;5.05;100.00;99143.66;5058450;28;20032;-79
2020/12/12 02:24:16;;;;;;;46.67;23.83;;;;;;;5.12;100.00;99152.91;5056858;28;20040;-78
2020/12/12 02:26:42;;;;;;;39.33;23.83;;;;;;;5.07;100.00;99144.41;5036409;28;20087;-78
2020/12/12 02:29:10;;;;;;;40.85;23.80;;;;;;;5.10;100.00;99145.13;5052008;28;20036;-82
2020/12/12 02:31:35;;;;;;;37.42;23.38;;;;;;;5.10;100.00;99145.13;5051187;28;20017;-83
2020/12/12 02:34:00;;;;;;;56.88;24.38;;;;;;;5.08;100.00;99148.75;5052219;28;20481;-82
2020/12/12 02:36:26;;;;;;;42.22;25.20;;;;;;;5.21;100.00;99147.22;5040753;28;20031;-83
2020/12/12 02:38:51;;;;;;;48.95;25.42;;;;;;;5.14;100.00;99148.47;5019555;28;20048;-82
2020/12/12 02:41:16;;;;;;;46.38;24.65;;;;;;;5.14;100.00;99145.84;5058463;28;20029;-83
2020/12/12 02:43:41;;;;;;;40.53;23.25;;;;;;;5.14;100.00;99153.69;5056305;28;20033;-82
2020/12/12 02:46:07;;;;;;;43.92;24.25;;;;;;;5.12;100.00;99156.41;5041569;28;20035;-83
2020/12/12 02:48:32;;;;;;;49.13;25.55;;;;;;;5.10;100.00;99160.00;5060318;28;20025;-83
2020/12/12 02:50:57;;;;;;;43.85;24.55;;;;;;;5.10;100.00;99158.22;5042075;28;20029;-83
2020/12/12 02:53:22;;;;;;;43.78;23.92;;;;;;;5.18;100.00;99160.47;5044705;28;20101;-82
2020/12/12 02:55:48;;;;;;;48.55;24.85;;;;;;;5.19;100.00;99162.16;5038078;28;20061;-83
2020/12/12 02:58:13;;;;;;;52.53;23.73;;;;;;;5.22;100.00;99163.78;5050771;28;20435;-83
2020/12/12 03:06:28;;;;;;;41.03;24.27;;;;;;;5.33;100.00;99154.50;5049544;28;20047;-82
2020/12/12 03:08:53;;;;;;;47.72;25.00;;;;;;;5.33;100.00;99162.34;5038419;28;20028;-83
2020/12/12 03:11:19;;;;;;;40.65;24.08;;;;;;;5.33;100.00;99164.97;5035307;28;20463;-83
2020/12/12 03:13:44;;;;;;;48.55;24.25;;;;;;;5.35;100.00;99164.88;5054210;28;20027;-82
2020/12/12 03:16:09;;;;;;;45.28;24.90;;;;;;;5.32;100.00;99165.91;5052499;28;20499;-83
2020/12/12 03:18:34;;;;;;;61.15;26.58;;;;;;;5.33;100.00;99167.59;5034202;28;20033;-83
2020/12/12 03:21:00;;;;;;;55.42;24.33;;;;;;;5.41;100.00;99172.44;5054150;28;20033;-82
2020/12/12 03:23:25;;;;;;;50.58;25.65;;;;;;;5.33;100.00;99169.34;5051536;28;20049;-83
2020/12/12 03:25:51;;;;;;;58.20;27.08;;;;;;;5.32;100.00;99179.00;5036487;28;20044;-83
2020/12/12 03:28:16;;;;;;;69.57;26.25;;;;;;;5.29;100.00;99173.91;5056055;28;20047;-83
2020/12/12 03:30:41;;;;;;;60.22;26.48;;;;;;;5.31;100.00;99174.66;5059068;28;20032;-83
2020/12/12 03:33:07;;;;;;;66.50;26.98;;;;;;;5.31;100.00;99182.50;5049152;28;20477;-83
2020/12/12 03:35:32;;;;;;;55.55;25.85;;;;;;;5.39;100.00;99185.63;5033858;28;20031;-83
2020/12/12 03:37:58;;;;;;;50.33;26.83;;;;;;;5.40;100.00;99186.47;5033215;28;20074;-82
2020/12/12 03:40:24;;;;;;;62.38;27.65;;;;;;;5.36;100.00;99187.53;5056284;28;20440;-82
2020/12/12 03:42:51;;;;;;;58.17;27.42;;;;;;;5.37;100.00;99190.09;5052916;28;20113;-83
2020/12/12 03:45:17;;;;;;;59.63;26.65;;;;;;;5.32;100.00;99189.47;5033851;28;20101;-83
2020/12/12 03:47:42;;;;;;;70.55;27.58;;;;;;;5.36;100.00;99177.03;5053484;28;20120;-82
2020/12/12 03:50:08;;;;;;;63.97;27.20;;;;;;;5.44;100.00;99190.63;5040227;28;20043;-82
2020/12/12 03:52:33;;;;;;;63.70;27.08;;;;;;;5.36;100.00;99198.00;5051800;28;20078;-82
2020/12/12 03:54:58;;;;;;;57.13;27.60;;;;;;;5.35;100.00;99191.06;5059040;28;20020;-82
2020/12/12 03:57:23;;;;;;;67.65;28.33;;;;;;;5.38;100.00;99191.78;5058020;28;20025;-82
2020/12/12 03:59:49;;;;;;;57.60;25.73;;;;;;;5.49;100.00;99193.03;5060548;28;20025;-82
2020/12/12 04:02:14;;;;;;;65.10;28.20;;;;;;;5.49;100.00;99193.88;5034996;28;20060;-81
2020/12/12 04:04:39;;;;;;;69.93;27.98;;;;;;;5.51;100.00;99196.41;5036171;28;20103;-82
2020/12/12 04:07:05;;;;;;;62.00;28.10;;;;;;;5.51;100.00;99199.03;5036532;28;20028;-82
2020/12/12 04:09:30;;;;;;;66.10;27.33;;;;;;;5.45;100.00;99201.03;5057382;28;20512;-82
2020/12/12 04:11:55;;;;;;;68.15;28.80;;;;;;;5.45;100.00;99206.25;5055060;28;20112;-82
2020/12/12 04:14:21;;;;;;;64.90;27.58;;;;;;;5.44;100.00;99206.34;5056637;28;20055;-82
2020/12/12 04:16:49;;;;;;;62.50;27.95;;;;;;;5.56;100.00;99207.50;5049630;28;20064;-82
2020/12/12 04:19:14;;;;;;;61.75;27.63;;;;;;;5.61;100.00;99215.97;5059101;28;20115;-83
2020/12/12 04:21:39;;;;;;;69.95;27.88;;;;;;;5.49;100.00;99216.59;5049911;28;20119;-81
2020/12/12 04:24:04;;;;;;;68.18;27.77;;;;;;;5.54;100.00;99210.22;5058854;28;20433;-82
2020/12/12 04:26:30;;;;;;;77.05;28.38;;;;;;;5.55;100.00;99211.06;5040104;28;20072;-82
2020/12/12 04:28:55;;;;;;;77.38;28.38;;;;;;;5.55;100.00;99222.38;5061005;28;20550;-82
2020/12/12 04:31:20;;;;;;;79.57;28.40;;;;;;;5.59;100.00;99220.47;5051990;28;20310;-82
2020/12/12 04:33:45;;;;;;;63.75;28.52;;;;;;;5.59;100.00;99216.06;5053866;28;20028;-82
2020/12/12 04:36:11;;;;;;;79.65;29.77;;;;;;;5.60;100.00;99225.63;5049916;28;20029;-82
2020/12/12 04:38:36;;;;;;;61.42;27.77;;;;;;;5.59;100.00;99226.56;5058409;28;20013;-82
2020/12/12 04:41:02;;;;;;;69.85;28.30;;;;;;;5.57;100.00;99230.16;5051468;28;20025;-82
2020/12/12 04:43:29;;;;;;;77.70;29.63;;;;;;;5.64;100.00;99239.44;5061270;28;20059;-83
2020/12/12 04:45:55;;;;;;;77.40;29.60;;;;;;;5.75;100.00;99236.28;5058968;28;20025;-83
2020/12/12 04:48:21;;;;;;;106.18;32.30;;;;;;;5.69;100.00;99229.56;5056907;28;20021;-81
2020/12/12 04:50:46;;;;;;;90.07;29.17;;;;;;;5.69;100.00;99237.44;5039237;28;20029;-83
2020/12/12 04:53:15;;;;;;;101.47;31.08;;;;;;;5.83;100.00;99234.97;5063575;28;20024;-83
2020/12/12 04:55:44;;;;;;;96.65;30.02;;;;;;;5.79;100.00;99241.28;5054838;28;20111;-83
2020/12/12 04:58:14;;;;;;;76.75;29.48;;;;;;;5.78;100.00;99239.59;5066564;28;20020;-83
2020/12/12 05:00:43;;;;;;;105.63;31.52;;;;;;;5.79;100.00;99243.91;5056152;28;20078;-82
2020/12/12 05:03:11;;;;;;;108.20;33.28;;;;;;;5.81;100.00;99242.06;5062073;28;20543;-81
2020/12/12 05:05:36;;;;;;;102.47;33.85;;;;;;;5.79;100.00;99241.28;5040319;28;20504;-82
2020/12/12 05:08:01;;;;;;;124.25;34.33;;;;;;;5.78;100.00;99244.84;5062536;28;20021;-82
2020/12/12 05:10:27;;;;;;;89.85;32.65;;;;;;;5.86;100.00;99250.53;5057256;28;20439;-82
2020/12/12 05:12:52;;;;;;;95.78;35.42;;;;;;;5.80;100.00;99250.84;5061247;28;20501;-83
2020/12/12 05:15:17;;;;;;;107.82;34.15;;;;;;;5.81;100.00;99254.31;5059892;28;20517;-81
2020/12/12 05:17:46;;;;;;;121.35;34.83;;;;;;;5.75;100.00;99250.22;5056188;28;20033;-82
2020/12/12 05:20:11;;;;;;;123.10;37.40;;;;;;;5.77;100.00;99260.63;5038412;28;20029;-82
2020/12/12 05:22:38;;;;;;;116.93;35.67;;;;;;;5.79;100.00;99264.88;5057274;28;20052;-82
2020/12/12 05:25:03;;;;;;;119.28;35.53;;;;;;;5.89;100.00;99266.13;5057975;28;20048;-82
2020/12/12 05:27:29;;;;;;;108.35;34.00;;;;;;;5.83;100.00;99255.09;5036168;28;20115;-82
2020/12/12 05:29:58;;;;;;;101.28;31.98;;;;;;;5.90;100.00;99262.56;5039120;28;20025;-82
2020/12/12 05:32:23;;;;;;;161.95;37.05;;;;;;;5.82;100.00;99267.34;5052509;28;20025;-81
2020/12/12 05:34:52;;;;;;;116.22;34.05;;;;;;;5.83;100.00;99265.59;5048868;28;20029;-82
2020/12/12 05:37:18;;;;;;;130.73;35.72;;;;;;;5.84;100.00;99269.91;5034863;28;20111;-83
2020/12/12 05:39:48;;;;;;;118.15;34.33;;;;;;;5.86;100.00;99274.13;5055493;28;20063;-82
2020/12/12 05:42:19;;;;;;;91.88;31.95;;;;;;;5.94;100.00;99263.31;5054625;28;20036;-81
2020/12/12 05:44:47;;;;;;;96.97;33.35;;;;;;;6.02;100.00;99276.00;5062588;28;20032;-81
2020/12/12 05:47:14;;;;;;;126.80;33.85;;;;;;;5.95;100.00;99271.09;5032050;28;20029;-81
2020/12/12 05:49:39;;;;;;;114.60;33.97;;;;;;;5.96;100.00;99279.78;5065153;28;20039;-82
2020/12/12 05:52:05;;;;;;;123.60;33.33;;;;;;;5.96;100.00;99287.66;5032275;28;20124;-83
2020/12/12 05:54:30;;;;;;;122.55;34.85;;;;;;;6.01;100.00;99288.28;5061109;28;20028;-83
2020/12/12 05:57:00;;;;;;;122.50;33.90;;;;;;;6.03;100.00;99286.44;5003290;28;20044;-82
2020/12/12 05:59:26;;;;;;;116.78;35.33;;;;;;;5.99;100.00;99282.28;5018348;28;20404;-82
2020/12/12 06:01:54;;;;;;;164.43;38.63;;;;;;;6.00;100.00;99291.84;5021420;28;20714;-82
2020/12/12 06:04:24;;;;;;;147.13;38.85;;;;;;;5.97;100.00;99298.09;5024268;28;20040;-82
2020/12/12 06:06:56;;;;;;;191.70;39.50;;;;;;;5.97;100.00;99299.84;5020918;28;20016;-82
2020/12/12 06:09:34;;;;;;;192.50;40.63;;;;;;;5.95;100.00;99299.94;5022780;28;20687;-83
2020/12/12 06:12:02;;;;;;;162.05;38.40;;;;;;;6.09;100.00;99301.03;4998606;28;20036;-83
2020/12/12 06:14:34;;;;;;;189.85;42.38;;;;;;;6.04;100.00;99308.28;5005709;28;20029;-83
2020/12/12 06:17:06;;;;;;;167.35;38.55;;;;;;;6.12;100.00;99320.06;5021906;28;20034;-83
2020/12/12 06:19:32;;;;;;;169.30;37.10;;;;;;;6.16;100.00;99312.88;5025012;28;20067;-82
2020/12/12 06:22:00;;;;;;;203.48;39.30;;;;;;;6.23;100.00;99317.75;4999524;28;20029;-82
2020/12/12 06:24:26;;;;;;;137.18;35.03;;;;;;;6.26;100.00;99326.41;5023743;28;20031;-82
2020/12/12 06:27:07;;;;;;;165.00;38.53;;;;;;;6.22;100.00;99323.06;5056927;28;20033;-82
2020/12/12 06:29:40;;;;;;;158.00;35.58;;;;;;;6.22;100.00;99331.81;5036591;28;20032;-83
2020/12/12 06:32:13;;;;;;;123.63;37.35;;;;;;;6.34;100.00;99343.47;5047851;28;20024;-83
2020/12/12 06:34:47;;;;;;;208.43;41.35;;;;;;;6.23;100.00;99349.25;5053209;28;20021;-82
2020/12/12 06:37:26;;;;;;;230.43;44.88;;;;;;;6.19;100.00;99346.84;5050572;28;20048;-83
2020/12/12 06:39:52;;;;;;;124.65;37.97;;;;;;;6.34;100.00;99350.47;5040689;28;20055;-82
2020/12/12 06:42:36;;;;;;;175.23;38.72;;;;;;;6.27;100.00;99357.78;5055754;28;20477;-83
2020/12/12 06:45:23;;;;;;;336.10;50.00;;;;;;;6.21;100.00;99360.72;5059657;28;20043;-83
2020/12/12 06:47:51;;;;;;;210.32;45.20;;;;;;;6.18;100.00;99363.53;5037371;28;20039;-83
2020/12/12 06:50:21;;;;;;;211.48;42.15;;;;;;;6.23;100.00;99365.00;5057815;28;20437;-83
2020/12/12 06:52:47;;;;;;;325.77;48.42;;;;;;;6.19;100.00;99357.34;5056271;28;20037;-83
2020/12/12 06:55:14;;;;;;;215.25;41.92;;;;;;;6.28;100.00;99372.63;5040749;28;20060;-82
2020/12/12 06:57:42;;;;;;;319.92;45.50;;;;;;;6.26;100.00;99371.00;5056542;28;20090;-82
2020/12/12 07:00:19;;;;;;;272.00;44.63;;;;;;;6.21;100.00;99372.06;5052875;28;20027;-82
2020/12/12 07:03:01;;;;;;;198.95;39.88;;;;;;;6.25;100.00;99372.78;5056240;28;20025;-82
2020/12/12 07:05:29;;;;;;;379.10;49.20;;;;;;;6.26;100.00;99379.72;5034134;28;20116;-83
2020/12/12 07:08:03;;;;;;;324.83;50.53;;;;;;;6.22;100.00;99391.28;5036651;28;20028;-82
2020/12/12 07:10:30;;;;;;;379.65;52.63;;;;;;;6.17;100.00;99388.88;5036627;28;20091;-83
2020/12/12 07:12:58;;;;;;;408.17;55.72;;;;;;;6.19;100.00;99386.22;5037131;28;20021;-82
2020/12/12 07:15:26;;;;;;;299.08;46.22;;;;;;;6.22;100.00;99401.78;5053671;28;20052;-83
2020/12/12 07:17:51;;;;;;;286.33;47.53;;;;;;;6.22;100.00;99407.91;5049634;28;20032;-83
2020/12/12 07:20:16;;;;;;;258.88;46.55;;;;;;;6.26;100.00;99408.56;5058829;28;20028;-85
2020/12/12 07:22:41;;;;;;;302.67;47.63;;;;;;;6.28;100.00;99405.91;5061487;28;20044;-85
2020/12/12 07:25:08;;;;;;;368.75;51.22;;;;;;;6.22;100.00;99399.16;5035110;28;20056;-85
2020/12/12 07:27:33;;;;;;;222.52;46.60;;;;;;;6.40;100.00;99415.78;5052699;28;20559;-84
2020/12/12 07:29:58;;;;;;;292.10;50.35;;;;;;;6.31;100.00;99410.97;5059270;28;20059;-85
2020/12/12 07:32:25;;;;;;;329.05;48.75;;;;;;;6.33;100.00;99424.88;5044497;28;20029;-84
2020/12/12 07:34:56;;;;;;;284.92;47.38;;;;;;;6.34;100.00;99422.19;5055865;28;20086;-84
2020/12/12 07:37:22;;;;;;;211.43;46.25;;;;;;;6.50;100.00;99422.25;5054782;28;20443;-85
2020/12/12 07:39:47;;;;;;;263.95;48.13;;;;;;;6.48;100.00;99432.84;5019446;28;20047;-85
2020/12/12 07:42:13;;;;;;;221.02;46.70;;;;;;;6.50;100.00;99438.00;5035781;28;20033;-85
2020/12/12 07:44:41;;;;;;;227.93;45.05;;;;;;;6.56;100.00;99439.47;5054372;28;20130;-84
2020/12/12 07:47:08;;;;;;;281.73;47.88;;;;;;;6.52;100.00;99440.53;5025719;28;20156;-85
2020/12/12 07:49:34;;;;;;;255.85;46.90;;;;;;;6.53;100.00;99443.13;5056466;28;20479;-85
2020/12/12 07:52:04;;;;;;;252.68;43.67;;;;;;;6.55;100.00;99449.13;5048306;28;20038;-85
2020/12/12 07:54:32;;;;;;;275.85;45.15;;;;;;;6.51;100.00;99444.94;5057747;28;20091;-83
2020/12/12 07:56:58;;;;;;;155.07;39.85;;;;;;;6.56;100.00;99457.84;5031897;28;20021;-85
2020/12/12 07:59:23;;;;;;;227.20;44.47;;;;;;;6.55;100.00;99469.28;5079971;28;20051;-82
2020/12/12 08:01:49;;;;;;;230.23;42.55;;;;;;;6.56;100.00;99465.72;5065493;28;20085;-84
2020/12/12 08:04:20;;;;;;;376.30;54.22;;;;;;;6.55;100.00;99467.50;5069240;28;20114;-85
2020/12/12 08:06:45;;;;;;;188.38;41.88;;;;;;;6.54;100.00;99472.84;5058197;28;20029;-85
2020/12/12 08:09:10;;;;;;;197.32;40.20;;;;;;;6.56;100.00;99473.59;5027040;28;20048;-85
2020/12/12 08:11:36;;;;;;;141.05;36.75;;;;;;;6.62;100.00;99484.63;5062687;28;20149;-85
2020/12/12 08:14:03;;;;;;;145.82;38.65;;;;;;;6.57;100.00;99483.16;5056601;28;20027;-85
2020/12/12 08:16:37;;;;;;;269.13;44.28;;;;;;;6.60;100.00;99486.50;5064413;28;20017;-86
2020/12/12 08:19:04;;;;;;;246.48;43.25;;;;;;;6.57;100.00;99489.25;5080325;28;20048;-86
2020/12/12 08:21:29;;;;;;;221.50;42.47;;;;;;;6.60;100.00;99494.38;5037994;28;20247;-85
2020/12/12 08:23:55;;;;;;;194.00;40.13;;;;;;;6.59;100.00;99494.47;5036762;28;20084;-85
2020/12/12 08:26:22;;;;;;;202.68;38.40;;;;;;;6.60;100.00;99499.63;5073108;28;20017;-85
2020/12/12 08:28:49;;;;;;;340.30;45.03;;;;;;;6.57;100.00;99504.16;5075832;28;20088;-86
2020/12/12 08:31:17;;;;;;;149.77;37.05;;;;;;;6.60;100.00;99512.75;5076095;28;20025;-85
2020/12/12 08:33:44;;;;;;;210.68;43.08;;;;;;;6.60;100.00;99512.75;5056143;28;20020;-86
2020/12/12 08:36:15;;;;;;;299.42;44.17;;;;;;;6.58;100.00;99522.50;5053075;28;20036;-86
2020/12/12 08:38:42;;;;;;;199.10;38.28;;;;;;;6.64;100.00;99524.81;5073734;28;20023;-86
2020/12/12 08:41:12;;;;;;;173.82;37.30;;;;;;;6.63;100.00;99520.50;5074000;28;20028;-86
2020/12/12 08:43:41;;;;;;;337.65;48.47;;;;;;;6.61;100.00;99527.56;5058498;28;20009;-86
2020/12/12 08:46:06;;;;;;;163.13;37.85;;;;;;;6.66;100.00;99525.56;5038867;28;20017;-86
2020/12/12 08:48:34;;;;;;;161.05;36.33;;;;;;;6.72;100.00;99535.75;5064434;28;20035;-86
2020/12/12 08:51:01;;;;;;;128.60;34.88;;;;;;;6.74;100.00;99531.31;5054149;28;20047;-86
2020/12/12 08:53:31;;;;;;;129.57;33.50;;;;;;;6.78;100.00;99533.75;5066374;28;20016;-86
2020/12/12 08:56:00;;;;;;;158.38;36.38;;;;;;;6.75;100.00;99546.13;5052896;28;20014;-85
2020/12/12 08:58:55;;;;;;;161.07;37.15;;;;;;;6.87;100.00;99544.66;5078042;28;20021;-86
2020/12/12 09:01:23;;;;;;;149.30;36.28;;;;;;;6.80;100.00;99545.91;5075680;28;20060;-85
2020/12/12 09:04:17;;;;;;;126.32;35.95;;;;;;;6.81;100.00;99547.59;5060716;28;20012;-86
2020/12/12 09:06:48;;;;;;;159.73;36.38;;;;;;;6.87;100.00;99549.06;5087174;23;20044;-68
2020/12/12 09:09:26;;;;;;;147.32;35.45;;;;;;;6.94;100.00;99559.22;5102746;28;20039;-68
2020/12/12 09:12:03;;;;;;;126.95;33.38;;;;;;;6.92;100.00;99562.81;5096983;28;20028;-67
2020/12/12 09:14:31;;;;;;;150.88;34.55;;;;;;;7.00;100.00;99566.78;5100114;28;20119;-67
2020/12/12 09:16:58;;;;;;;108.95;30.80;;;;;;;7.04;100.00;99575.38;5098426;28;20024;-67
2020/12/12 09:19:24;;;;;;;116.65;30.95;;;;;;;7.07;100.00;99575.19;5100270;28;20036;-68
2020/12/12 09:21:50;;;;;;;111.63;32.78;;;;;;;7.11;100.00;99583.78;5094256;28;20161;-67
2020/12/12 09:24:16;;;;;;;112.07;32.67;;;;;;;7.13;100.00;99572.28;5096301;28;20099;-67
2020/12/12 09:26:42;;;;;;;116.30;31.95;;;;;;;7.16;100.00;99584.41;5095651;28;20032;-67
2020/12/12 09:29:07;;;;;;;115.40;33.53;;;;;;;7.21;100.00;99595.53;5096758;28;20035;-68
2020/12/12 09:31:33;;;;;;;118.28;31.20;;;;;;;7.20;100.00;99594.69;5096881;28;20569;-67
2020/12/12 09:33:59;;;;;;;107.97;30.80;;;;;;;7.20;100.00;99596.47;5089944;28;20038;-68
2020/12/12 09:36:24;;;;;;;175.88;36.25;;;;;;;7.23;100.00;99604.22;5093774;28;20107;-68
2020/12/12 09:38:51;;;;;;;130.52;34.72;;;;;;;7.21;100.00;99599.00;5096257;28;20038;-68
2020/12/12 09:41:16;;;;;;;114.68;31.85;;;;;;;7.26;100.00;99612.75;5097685;28;20031;-68
2020/12/12 09:43:41;;;;;;;102.45;31.65;;;;;;;7.26;100.00;99604.03;5092104;28;20028;-68
2020/12/12 09:46:08;;;;;;;95.50;31.98;;;;;;;7.23;100.00;99607.69;5086735;28;20019;-67
2020/12/12 09:48:35;;;;;;;108.03;32.42;;;;;;;7.26;100.00;99607.50;5077889;28;20028;-68
2020/12/12 09:51:01;;;;;;;95.78;30.40;;;;;;;7.31;100.00;99614.31;5097899;28;20024;-68
2020/12/12 09:53:27;;;;;;;96.97;31.33;;;;;;;7.40;100.00;99619.97;5095498;28;20024;-69
2020/12/12 09:55:53;;;;;;;90.55;30.83;;;;;;;7.35;100.00;99629.00;5089594;28;20025;-68
2020/12/12 09:58:19;;;;;;;73.22;26.23;;;;;;;7.41;100.00;99626.06;5094833;28;20043;-66
2020/12/12 10:00:44;;;;;;;73.80;27.50;;;;;;;7.42;100.00;99622.50;5104364;28;20027;-67
2020/12/12 10:03:09;;;;;;;65.25;24.95;;;;;;;7.51;100.00;99627.28;5090066;28;20037;-67
2020/12/12 10:05:35;;;;;;;68.95;25.88;;;;;;;7.50;100.00;99634.34;5091617;28;20418;-66
2020/12/12 10:08:03;;;;;;;68.03;26.33;;;;;;;7.56;100.00;99634.94;5092638;28;20052;-67
2020/12/12 10:10:30;;;;;;;62.20;24.50;;;;;;;7.64;100.00;99643.31;5094914;28;20020;-67
2020/12/12 10:12:55;;;;;;;54.83;23.25;;;;;;;7.53;100.00;99642.09;5089177;28;20099;-67
2020/12/12 10:15:22;;;;;;;57.33;25.45;;;;;;;7.59;100.00;99643.53;5093659;28;20538;-66
2020/12/12 10:17:48;;;;;;;60.70;23.58;;;;;;;7.59;100.00;99637.44;5096372;28;20072;-67
2020/12/12 10:20:13;;;;;;;58.08;22.50;;;;;;;7.64;100.00;99638.06;5095185;28;20030;-67
2020/12/12 10:22:40;;;;;;;58.53;23.38;;;;;;;7.65;100.00;99645.00;5088874;28;20393;-67
2020/12/12 10:25:05;;;;;;;61.75;23.65;;;;;;;7.84;100.00;99642.28;5091217;28;20019;-67
2020/12/12 10:27:30;;;;;;;60.95;25.38;;;;;;;7.84;100.00;99639.66;5093618;28;20103;-68
2020/12/12 10:29:56;;;;;;;62.25;26.65;;;;;;;7.85;100.00;99651.88;5088263;28;20617;-68
2020/12/12 10:32:21;;;;;;;64.00;26.33;;;;;;;7.90;100.00;99650.69;5091851;28;20024;-67
2020/12/12 10:34:46;;;;;;;54.83;24.88;;;;;;;7.94;100.00;99659.28;5098801;28;20555;-68
2020/12/12 10:37:12;;;;;;;74.80;28.73;;;;;;;8.05;100.00;99663.06;5097436;28;20034;-68
2020/12/12 10:42:16;;;;;;;63.33;26.40;;;;;;;8.23;100.00;99665.63;5091422;28;20156;-68
2020/12/12 10:44:41;;;;;;;58.33;26.75;;;;;;;8.24;100.00;99668.19;5092737;28;20045;-68
2020/12/12 10:47:06;;;;;;;59.38;24.85;;;;;;;8.29;100.00;99675.84;5092121;28;20040;-68
2020/12/12 10:49:31;;;;;;;60.60;25.42;;;;;;;8.26;100.00;99681.25;5094259;28;20024;-68
2020/12/12 10:51:57;;;;;;;66.32;26.42;;;;;;;8.26;100.00;99674.22;5095512;28;20078;-68
2020/12/12 10:54:26;;;;;;;52.45;24.45;;;;;;;8.28;100.00;99672.38;5092713;28;20038;-69
2020/12/12 10:56:52;;;;;;;59.28;24.75;;;;;;;8.18;100.00;99679.06;5090331;28;20028;-66
2020/12/12 10:59:17;;;;;;;56.25;22.65;;;;;;;8.21;100.00;99688.56;5082543;28;20020;-68
2020/12/12 11:01:42;;;;;;;65.40;26.83;;;;;;;8.19;100.00;99693.91;5089457;28;20103;-67
2020/12/12 11:04:07;;;;;;;53.13;23.67;;;;;;;8.10;100.00;99689.13;5085411;28;20435;-67
2020/12/12 11:06:33;;;;;;;56.90;25.77;;;;;;;7.97;100.00;99685.41;5089249;28;20051;-67
2020/12/12 11:08:59;;;;;;;58.22;26.88;;;;;;;7.87;100.00;99684.19;5093126;28;20419;-68
2020/12/12 11:11:25;;;;;;;62.00;25.98;;;;;;;7.92;100.00;99687.44;5081106;28;20025;-68
2020/12/12 11:13:50;;;;;;;60.90;27.80;;;;;;;7.90;100.00;99689.31;5091776;28;20029;-68
2020/12/12 11:16:19;;;;;;;68.70;27.63;;;;;;;7.84;100.00;99679.13;5078073;28;20028;-68
2020/12/12 11:18:48;;;;;;;68.82;28.85;;;;;;;7.93;100.00;99699.66;5092182;28;20020;-67
2020/12/12 11:21:17;;;;;;;65.35;26.85;;;;;;;7.94;100.00;99690.88;5086051;28;20032;-67